sensor_id;sensor_type;location;lat;lon;timestamp;pressure;altitude;pressure_sealevel;temperature;humidity
76114;BME280;64845;53.086;5.834;2023-04-03T00:00:48;103298.16;;;3.68;64.42
76114;BME280;64845;53.086;5.834;2023-04-03T00:03:15;103299.00;;;3.67;64.33
76114;BME280;64845;53.086;5.834;2023-04-03T00:05:40;103296.25;;;3.63;64.49
76114;BME280;64845;53.086;5.834;2023-04-03T00:08:06;103290.06;;;3.61;64.20
76114;BME280;64845;53.086;5.834;2023-04-03T00:10:33;103296.19;;;3.60;64.56
76114;BME280;64845;53.086;5.834;2023-04-03T00:12:59;103303.09;;;3.57;64.35
76114;BME280;64845;53.086;5.834;2023-04-03T00:15:24;103299.53;;;3.55;64.33
76114;BME280;64845;53.086;5.834;2023-04-03T00:17:50;103311.84;;;3.54;64.40
76114;BME280;64845;53.086;5.834;2023-04-03T00:20:15;103305.63;;;3.52;64.07
76114;BME280;64845;53.086;5.834;2023-04-03T00:22:41;103304.75;;;3.52;64.20
76114;BME280;64845;53.086;5.834;2023-04-03T00:25:07;103302.94;;;3.51;64.59
76114;BME280;64845;53.086;5.834;2023-04-03T00:27:32;103308.16;;;3.49;64.59
76114;BME280;64845;53.086;5.834;2023-04-03T00:29:57;103315.09;;;3.45;64.37
76114;BME280;64845;53.086;5.834;2023-04-03T00:32:23;103306.28;;;3.45;64.51
76114;BME280;64845;53.086;5.834;2023-04-03T00:34:48;103311.47;;;3.42;64.08
76114;BME280;64845;53.086;5.834;2023-04-03T00:37:13;103311.41;;;3.40;64.46
76114;BME280;64845;53.086;5.834;2023-04-03T00:39:39;103309.63;;;3.39;63.93
76114;BME280;64845;53.086;5.834;2023-04-03T00:42:04;103309.59;;;3.38;64.04
76114;BME280;64845;53.086;5.834;2023-04-03T00:46:59;103318.25;;;3.33;63.70
76114;BME280;64845;53.086;5.834;2023-04-03T00:49:26;103312.09;;;3.33;63.85
76114;BME280;64845;53.086;5.834;2023-04-03T00:51:52;103320.88;;;3.32;63.94
76114;BME280;64845;53.086;5.834;2023-04-03T00:54:18;103313.78;;;3.31;64.73
76114;BME280;64845;53.086;5.834;2023-04-03T00:56:44;103319.06;;;3.31;64.52
76114;BME280;64845;53.086;5.834;2023-04-03T00:59:13;103319.00;;;3.29;63.99
76114;BME280;64845;53.086;5.834;2023-04-03T01:01:40;103320.69;;;3.27;64.18
76114;BME280;64845;53.086;5.834;2023-04-03T01:04:26;103319.72;;;3.24;64.19
76114;BME280;64845;53.086;5.834;2023-04-03T01:06:54;103330.25;;;3.22;64.41
76114;BME280;64845;53.086;5.834;2023-04-03T01:09:21;103321.38;;;3.20;64.01
76114;BME280;64845;53.086;5.834;2023-04-03T01:11:47;103324.88;;;3.21;63.75
76114;BME280;64845;53.086;5.834;2023-04-03T01:14:13;103330.13;;;3.19;64.08
76114;BME280;64845;53.086;5.834;2023-04-03T01:16:38;103335.41;;;3.19;64.67
76114;BME280;64845;53.086;5.834;2023-04-03T01:19:08;103333.56;;;3.16;64.16
76114;BME280;64845;53.086;5.834;2023-04-03T01:24:37;103339.59;;;3.12;64.19
76114;BME280;64845;53.086;5.834;2023-04-03T01:27:09;103337.75;;;3.10;64.03
76114;BME280;64845;53.086;5.834;2023-04-03T01:29:35;103330.66;;;3.09;64.10
76114;BME280;64845;53.086;5.834;2023-04-03T01:32:02;103332.34;;;3.07;63.78
76114;BME280;64845;53.086;5.834;2023-04-03T01:34:28;103332.34;;;3.07;63.91
76114;BME280;64845;53.086;5.834;2023-04-03T01:36:54;103333.19;;;3.06;64.12
76114;BME280;64845;53.086;5.834;2023-04-03T01:39:20;103327.91;;;3.06;63.95
76114;BME280;64845;53.086;5.834;2023-04-03T01:41:46;103329.66;;;3.04;64.27
76114;BME280;64845;53.086;5.834;2023-04-03T01:44:12;103323.44;;;3.03;64.51
76114;BME280;64845;53.086;5.834;2023-04-03T01:46:37;103326.91;;;3.00;64.34
76114;BME280;64845;53.086;5.834;2023-04-03T01:49:03;103333.03;;;2.99;63.97
76114;BME280;64845;53.086;5.834;2023-04-03T01:51:30;103336.44;;;2.97;64.14
76114;BME280;64845;53.086;5.834;2023-04-03T01:53:55;103325.81;;;2.94;64.25
76114;BME280;64845;53.086;5.834;2023-04-03T01:56:21;103335.41;;;2.92;64.27
76114;BME280;64845;53.086;5.834;2023-04-03T01:58:46;103334.38;;;2.88;64.23
76114;BME280;64845;53.086;5.834;2023-04-03T02:01:11;103331.72;;;2.86;64.45
76114;BME280;64845;53.086;5.834;2023-04-03T02:03:37;103332.53;;;2.84;64.21
76114;BME280;64845;53.086;5.834;2023-04-03T02:06:02;103336.84;;;2.82;64.38
76114;BME280;64845;53.086;5.834;2023-04-03T02:08:28;103342.00;;;2.79;64.61
76114;BME280;64845;53.086;5.834;2023-04-03T02:10:53;103342.84;;;2.78;64.62
76114;BME280;64845;53.086;5.834;2023-04-03T02:13:19;103347.19;;;2.76;64.34
76114;BME280;64845;53.086;5.834;2023-04-03T02:15:45;103349.81;;;2.76;64.49
76114;BME280;64845;53.086;5.834;2023-04-03T02:18:11;103354.16;;;2.74;64.51
76114;BME280;64845;53.086;5.834;2023-04-03T02:20:36;103353.19;;;2.71;64.50
76114;BME280;64845;53.086;5.834;2023-04-03T02:23:02;103354.84;;;2.68;64.49
76114;BME280;64845;53.086;5.834;2023-04-03T02:25:30;103358.31;;;2.67;65.02
76114;BME280;64845;53.086;5.834;2023-04-03T02:27:55;103359.03;;;2.63;64.11
76114;BME280;64845;53.086;5.834;2023-04-03T02:30:21;103364.31;;;2.63;64.44
76114;BME280;64845;53.086;5.834;2023-04-03T02:32:46;103368.66;;;2.61;65.12
76114;BME280;64845;53.086;5.834;2023-04-03T02:35:11;103367.81;;;2.62;64.69
76114;BME280;64845;53.086;5.834;2023-04-03T02:37:37;103362.41;;;2.59;64.77
76114;BME280;64845;53.086;5.834;2023-04-03T02:40:04;103368.53;;;2.57;65.33
76114;BME280;64845;53.086;5.834;2023-04-03T02:42:29;103369.34;;;2.55;64.44
76114;BME280;64845;53.086;5.834;2023-04-03T02:44:55;103371.84;;;2.52;65.15
76114;BME280;64845;53.086;5.834;2023-04-03T02:47:21;103368.34;;;2.51;64.89
76114;BME280;64845;53.086;5.834;2023-04-03T02:49:46;103373.50;;;2.48;64.63
76114;BME280;64845;53.086;5.834;2023-04-03T02:52:14;103369.00;;;2.46;65.42
76114;BME280;64845;53.086;5.834;2023-04-03T02:54:40;103375.13;;;2.45;65.08
76114;BME280;64845;53.086;5.834;2023-04-03T02:57:06;103368.91;;;2.42;65.26
76114;BME280;64845;53.086;5.834;2023-04-03T02:59:35;103375.91;;;2.42;64.99
76114;BME280;64845;53.086;5.834;2023-04-03T03:02:00;103373.22;;;2.40;65.05
76114;BME280;64845;53.086;5.834;2023-04-03T03:04:25;103374.06;;;2.39;65.61
76114;BME280;64845;53.086;5.834;2023-04-03T03:06:51;103371.31;;;2.36;65.55
76114;BME280;64845;53.086;5.834;2023-04-03T03:09:17;103376.53;;;2.35;65.41
76114;BME280;64845;53.086;5.834;2023-04-03T03:11:42;103379.94;;;2.32;65.21
76114;BME280;64845;53.086;5.834;2023-04-03T03:14:08;103384.25;;;2.30;65.49
76114;BME280;64845;53.086;5.834;2023-04-03T03:16:33;103380.66;;;2.28;65.28
76114;BME280;64845;53.086;5.834;2023-04-03T03:18:59;103380.66;;;2.28;65.21
76114;BME280;64845;53.086;5.834;2023-04-03T03:21:24;103388.56;;;2.28;65.76
76114;BME280;64845;53.086;5.834;2023-04-03T03:23:50;103390.34;;;2.28;65.22
76114;BME280;64845;53.086;5.834;2023-04-03T03:26:15;103383.25;;;2.26;65.40
76114;BME280;64845;53.086;5.834;2023-04-03T03:28:41;103389.38;;;2.25;65.83
76114;BME280;64845;53.086;5.834;2023-04-03T03:31:08;103389.31;;;2.24;66.03
76114;BME280;64845;53.086;5.834;2023-04-03T03:33:33;103388.38;;;2.22;65.71
76114;BME280;64845;53.086;5.834;2023-04-03T03:35:59;103392.72;;;2.21;65.96
76114;BME280;64845;53.086;5.834;2023-04-03T03:38:25;103391.84;;;2.21;65.58
76114;BME280;64845;53.086;5.834;2023-04-03T03:40:51;103389.13;;;2.19;65.80
76114;BME280;64845;53.086;5.834;2023-04-03T03:43:17;103397.00;;;2.18;66.21
76114;BME280;64845;53.086;5.834;2023-04-03T03:45:43;103403.09;;;2.17;65.23
76114;BME280;64845;53.086;5.834;2023-04-03T03:48:09;103405.69;;;2.15;65.75
76114;BME280;64845;53.086;5.834;2023-04-03T03:50:35;103405.63;;;2.14;65.43
76114;BME280;64845;53.086;5.834;2023-04-03T03:53:00;103395.03;;;2.12;65.77
76114;BME280;64845;53.086;5.834;2023-04-03T03:55:26;103398.63;;;2.14;65.42
76114;BME280;64845;53.086;5.834;2023-04-03T03:57:51;103398.56;;;2.13;65.76
76114;BME280;64845;53.086;5.834;2023-04-03T04:00:17;103399.28;;;2.08;66.19
76114;BME280;64845;53.086;5.834;2023-04-03T04:02:43;103405.38;;;2.07;65.85
76114;BME280;64845;53.086;5.834;2023-04-03T04:05:08;103408.94;;;2.08;66.18
76114;BME280;64845;53.086;5.834;2023-04-03T04:07:34;103404.50;;;2.07;66.06
76114;BME280;64845;53.086;5.834;2023-04-03T04:10:00;103398.28;;;2.05;65.91
76114;BME280;64845;53.086;5.834;2023-04-03T04:12:25;103402.66;;;2.04;66.15
76114;BME280;64845;53.086;5.834;2023-04-03T04:14:50;103408.78;;;2.03;65.78
76114;BME280;64845;53.086;5.834;2023-04-03T04:17:16;103404.25;;;2.01;66.27
76114;BME280;64845;53.086;5.834;2023-04-03T04:19:41;103405.16;;;2.01;66.17
76114;BME280;64845;53.086;5.834;2023-04-03T04:22:07;103394.56;;;2.00;65.92
76114;BME280;64845;53.086;5.834;2023-04-03T04:24:32;103397.97;;;1.97;66.38
76114;BME280;64845;53.086;5.834;2023-04-03T04:26:57;103398.78;;;1.94;66.25
76114;BME280;64845;53.086;5.834;2023-04-03T04:29:23;103385.53;;;1.93;66.33
76114;BME280;64845;53.086;5.834;2023-04-03T04:31:48;103390.75;;;1.91;66.26
76114;BME280;64845;53.086;5.834;2023-04-03T04:34:14;103390.66;;;1.90;66.07
76114;BME280;64845;53.086;5.834;2023-04-03T04:36:39;103390.53;;;1.87;66.71
76114;BME280;64845;53.086;5.834;2023-04-03T04:39:05;103401.03;;;1.85;66.41
76114;BME280;64845;53.086;5.834;2023-04-03T04:41:31;103401.84;;;1.83;66.59
76114;BME280;64845;53.086;5.834;2023-04-03T04:43:56;103409.66;;;1.81;66.49
76114;BME280;64845;53.086;5.834;2023-04-03T04:46:22;103414.88;;;1.79;67.12
76114;BME280;64845;53.086;5.834;2023-04-03T04:48:47;103410.44;;;1.78;66.55
76114;BME280;64845;53.086;5.834;2023-04-03T04:51:14;103406.84;;;1.76;66.52
76114;BME280;64845;53.086;5.834;2023-04-03T04:53:39;103416.44;;;1.74;67.21
76114;BME280;64845;53.086;5.834;2023-04-03T04:56:06;103433.91;;;1.72;67.17
76114;BME280;64845;53.086;5.834;2023-04-03T04:58:31;103447.06;;;1.72;67.01
76114;BME280;64845;53.086;5.834;2023-04-03T05:01:05;103433.78;;;1.69;67.06
76114;BME280;64845;53.086;5.834;2023-04-03T05:03:31;103438.03;;;1.65;66.44
76114;BME280;64845;53.086;5.834;2023-04-03T05:05:56;103434.38;;;1.62;66.77
76114;BME280;64845;53.086;5.834;2023-04-03T05:08:22;103440.47;;;1.61;67.06
76114;BME280;64845;53.086;5.834;2023-04-03T05:10:48;103443.97;;;1.60;67.39
76114;BME280;64845;53.086;5.834;2023-04-03T05:13:14;103444.78;;;1.59;66.77
76114;BME280;64845;53.086;5.834;2023-04-03T05:15:39;103436.81;;;1.57;67.54
76114;BME280;64845;53.086;5.834;2023-04-03T05:18:05;103428.84;;;1.56;67.01
76114;BME280;64845;53.086;5.834;2023-04-03T05:20:31;103437.59;;;1.55;67.63
76114;BME280;64845;53.086;5.834;2023-04-03T05:22:57;103449.88;;;1.54;67.31
76114;BME280;64845;53.086;5.834;2023-04-03T05:25:22;103441.97;;;1.54;67.43
76114;BME280;64845;53.086;5.834;2023-04-03T05:27:48;103448.97;;;1.54;67.02
76114;BME280;64845;53.086;5.834;2023-04-03T05:30:13;103447.25;;;1.54;67.50
76114;BME280;64845;53.086;5.834;2023-04-03T05:32:39;103448.97;;;1.54;67.50
76114;BME280;64845;53.086;5.834;2023-04-03T05:35:05;103455.13;;;1.54;67.12
76114;BME280;64845;53.086;5.834;2023-04-03T05:37:31;103456.81;;;1.52;67.18
76114;BME280;64845;53.086;5.834;2023-04-03T05:39:56;103457.69;;;1.53;67.68
76114;BME280;64845;53.086;5.834;2023-04-03T05:42:22;103456.81;;;1.52;67.40
76114;BME280;64845;53.086;5.834;2023-04-03T05:44:48;103450.63;;;1.51;67.68
76114;BME280;64845;53.086;5.834;2023-04-03T05:47:15;103457.69;;;1.53;67.77
76114;BME280;64845;53.086;5.834;2023-04-03T05:49:40;103460.31;;;1.53;67.67
76114;BME280;64845;53.086;5.834;2023-04-03T05:52:20;103451.59;;;1.54;67.68
76114;BME280;64845;53.086;5.834;2023-04-03T05:54:46;103463.03;;;1.54;67.99
76114;BME280;64845;53.086;5.834;2023-04-03T05:57:14;103462.13;;;1.54;67.67
76114;BME280;64845;53.086;5.834;2023-04-03T05:59:39;103461.25;;;1.53;67.88
76114;BME280;64845;53.086;5.834;2023-04-03T06:02:05;103468.34;;;1.56;67.57
76114;BME280;64845;53.086;5.834;2023-04-03T06:04:30;103461.28;;;1.55;67.85
76114;BME280;64845;53.086;5.834;2023-04-03T06:06:57;103466.66;;;1.56;67.72
76114;BME280;64845;53.086;5.834;2023-04-03T06:09:26;103463.13;;;1.57;68.00
76114;BME280;64845;53.086;5.834;2023-04-03T06:11:52;103466.75;;;1.59;67.94
76114;BME280;64845;53.086;5.834;2023-04-03T06:14:18;103463.22;;;1.59;68.08
76114;BME280;64845;53.086;5.834;2023-04-03T06:16:44;103475.59;;;1.61;67.87
76114;BME280;64845;53.086;5.834;2023-04-03T06:19:11;103476.56;;;1.63;68.15
76114;BME280;64845;53.086;5.834;2023-04-03T06:21:38;103476.69;;;1.66;68.28
76114;BME280;64845;53.086;5.834;2023-04-03T06:24:04;103473.38;;;1.71;67.67
76114;BME280;64845;53.086;5.834;2023-04-03T06:26:31;103474.38;;;1.74;68.05
76114;BME280;64845;53.086;5.834;2023-04-03T06:28:57;103482.41;;;1.77;68.25
76114;BME280;64845;53.086;5.834;2023-04-03T06:31:22;103486.97;;;1.81;68.31
76114;BME280;64845;53.086;5.834;2023-04-03T06:33:47;103490.63;;;1.85;68.04
76114;BME280;64845;53.086;5.834;2023-04-03T06:36:13;103492.59;;;1.91;67.77
76114;BME280;64845;53.086;5.834;2023-04-03T06:38:38;103491.00;;;1.94;68.20
76114;BME280;64845;53.086;5.834;2023-04-03T06:41:04;103488.47;;;1.98;68.22
76114;BME280;64845;53.086;5.834;2023-04-03T06:43:29;103493.84;;;2.01;68.03
76114;BME280;64845;53.086;5.834;2023-04-03T06:45:56;103497.59;;;2.06;68.09
76114;BME280;64845;53.086;5.834;2023-04-03T06:48:22;103500.38;;;2.10;68.17
76114;BME280;64845;53.086;5.834;2023-04-03T06:50:48;103507.59;;;2.15;67.98
76114;BME280;64845;53.086;5.834;2023-04-03T06:53:13;103511.22;;;2.18;68.01
76114;BME280;64845;53.086;5.834;2023-04-03T06:55:40;103513.22;;;2.24;67.62
76114;BME280;64845;53.086;5.834;2023-04-03T06:58:06;103508.19;;;2.30;68.02
76114;BME280;64845;53.086;5.834;2023-04-03T07:00:31;103508.47;;;2.38;67.91
76114;BME280;64845;53.086;5.834;2023-04-03T07:02:57;103510.47;;;2.44;68.58
76114;BME280;64845;53.086;5.834;2023-04-03T07:05:23;103515.13;;;2.51;68.15
76114;BME280;64845;53.086;5.834;2023-04-03T07:07:49;103510.97;;;2.57;68.10
76114;BME280;64845;53.086;5.834;2023-04-03T07:10:15;103518.28;;;2.65;67.94
76114;BME280;64845;53.086;5.834;2023-04-03T07:12:41;103517.59;;;2.70;67.92
76114;BME280;64845;53.086;5.834;2023-04-03T07:15:07;103527.47;;;2.76;68.10
76114;BME280;64845;53.086;5.834;2023-04-03T07:17:33;103518.91;;;2.82;67.35
76114;BME280;64845;53.086;5.834;2023-04-03T07:19:58;103518.28;;;2.89;67.46
76114;BME280;64845;53.086;5.834;2023-04-03T07:22:24;103527.31;;;2.96;68.02
76114;BME280;64845;53.086;5.834;2023-04-03T07:24:49;103535.53;;;3.04;67.83
76114;BME280;64845;53.086;5.834;2023-04-03T07:27:15;103547.25;;;3.12;67.56
76114;BME280;64845;53.086;5.834;2023-04-03T07:29:42;103543.88;;;3.16;67.16
76114;BME280;64845;53.086;5.834;2023-04-03T07:32:09;103549.31;;;3.21;67.50
76114;BME280;64845;53.086;5.834;2023-04-03T07:34:35;103553.91;;;3.26;67.32
76114;BME280;64845;53.086;5.834;2023-04-03T07:37:01;103548.03;;;3.33;67.33
76114;BME280;64845;53.086;5.834;2023-04-03T07:39:27;103560.59;;;3.41;67.11
76114;BME280;64845;53.086;5.834;2023-04-03T07:41:53;103566.16;;;3.48;66.97
76114;BME280;64845;53.086;5.834;2023-04-03T07:44:20;103565.50;;;3.56;66.74
76114;BME280;64845;53.086;5.834;2023-04-03T07:46:46;103560.47;;;3.63;67.28
76114;BME280;64845;53.086;5.834;2023-04-03T07:49:12;103561.66;;;3.72;66.87
76114;BME280;64845;53.086;5.834;2023-04-03T07:51:37;103563.66;;;3.79;66.59
76114;BME280;64845;53.086;5.834;2023-04-03T07:54:03;103563.00;;;3.86;66.08
76114;BME280;64845;53.086;5.834;2023-04-03T07:56:29;103565.00;;;3.93;66.15
76114;BME280;64845;53.086;5.834;2023-04-03T07:58:54;103561.72;;;4.01;65.95
76114;BME280;64845;53.086;5.834;2023-04-03T08:01:20;103561.06;;;4.08;66.25
76114;BME280;64845;53.086;5.834;2023-04-03T08:03:46;103560.41;;;4.15;65.88
76114;BME280;64845;53.086;5.834;2023-04-03T08:06:11;103558.88;;;4.22;65.56
76114;BME280;64845;53.086;5.834;2023-04-03T08:08:37;103562.59;;;4.29;65.77
76114;BME280;64845;53.086;5.834;2023-04-03T08:11:03;103552.25;;;4.36;65.38
76114;BME280;64845;53.086;5.834;2023-04-03T08:13:31;103551.50;;;4.41;65.28
76114;BME280;64845;53.086;5.834;2023-04-03T08:15:56;103554.38;;;4.48;65.58
76114;BME280;64845;53.086;5.834;2023-04-03T08:18:24;103554.66;;;4.58;65.28
76114;BME280;64845;53.086;5.834;2023-04-03T08:20:51;103543.38;;;4.65;65.09
76114;BME280;64845;53.086;5.834;2023-04-03T08:23:17;103551.66;;;4.76;64.98
76114;BME280;64845;53.086;5.834;2023-04-03T08:25:44;103548.34;;;4.83;64.59
76114;BME280;64845;53.086;5.834;2023-04-03T08:28:10;103542.31;;;4.89;64.66
76114;BME280;64845;53.086;5.834;2023-04-03T08:30:39;103550.44;;;4.95;64.21
76114;BME280;64845;53.086;5.834;2023-04-03T08:33:05;103550.59;;;5.01;64.31
76114;BME280;64845;53.086;5.834;2023-04-03T08:35:31;103551.72;;;5.09;63.98
76114;BME280;64845;53.086;5.834;2023-04-03T08:37:56;103551.91;;;5.16;63.66
76114;BME280;64845;53.086;5.834;2023-04-03T08:40:22;103545.97;;;5.24;63.87
76114;BME280;64845;53.086;5.834;2023-04-03T08:45:26;103548.09;;;5.39;63.32
76114;BME280;64845;53.086;5.834;2023-04-03T08:50:28;103545.78;;;5.52;62.68
76114;BME280;64845;53.086;5.834;2023-04-03T08:52:57;103545.03;;;5.57;62.48
76114;BME280;64845;53.086;5.834;2023-04-03T08:55:28;103541.72;;;5.65;62.51
76114;BME280;64845;53.086;5.834;2023-04-03T08:58:01;103543.69;;;5.73;62.21
76114;BME280;64845;53.086;5.834;2023-04-03T09:00:32;103545.63;;;5.81;62.11
76114;BME280;64845;53.086;5.834;2023-04-03T09:02:59;103546.72;;;5.89;61.96
76114;BME280;64845;53.086;5.834;2023-04-03T09:05:42;103546.00;;;5.96;61.55
76114;BME280;64845;53.086;5.834;2023-04-03T09:10:46;103551.72;;;6.13;61.37
76114;BME280;64845;53.086;5.834;2023-04-03T09:13:13;103548.41;;;6.22;61.20
76114;BME280;64845;53.086;5.834;2023-04-03T09:15:44;103541.53;;;6.30;61.34
76114;BME280;64845;53.086;5.834;2023-04-03T09:18:16;103545.19;;;6.37;60.82
76114;BME280;64845;53.086;5.834;2023-04-03T09:21:08;103540.91;;;6.44;60.48
76114;BME280;64845;53.086;5.834;2023-04-03T09:23:47;103544.59;;;6.50;59.96
76114;BME280;64845;53.086;5.834;2023-04-03T09:26:28;103529.69;;;6.57;59.98
76114;BME280;64845;53.086;5.834;2023-04-03T09:28:57;103529.03;;;6.66;59.95
76114;BME280;64845;53.086;5.834;2023-04-03T09:31:27;103530.94;;;6.73;59.67
76114;BME280;64845;53.086;5.834;2023-04-03T09:33:57;103533.72;;;6.79;59.61
76114;BME280;64845;53.086;5.834;2023-04-03T09:36:45;103530.34;;;6.88;59.35
76114;BME280;64845;53.086;5.834;2023-04-03T09:39:18;103532.28;;;6.95;59.35
76114;BME280;64845;53.086;5.834;2023-04-03T09:44:56;103538.69;;;7.08;58.47
76114;BME280;64845;53.086;5.834;2023-04-03T09:47:30;103533.44;;;7.11;58.21
76114;BME280;64845;53.086;5.834;2023-04-03T09:52:43;103536.38;;;7.25;57.85
76114;BME280;64845;53.086;5.834;2023-04-03T09:55:23;103534.72;;;7.32;57.83
76114;BME280;64845;53.086;5.834;2023-04-03T09:58:01;103530.44;;;7.40;57.36
76114;BME280;64845;53.086;5.834;2023-04-03T10:00:31;103531.44;;;7.47;57.22
76114;BME280;64845;53.086;5.834;2023-04-03T10:02:59;103529.78;;;7.54;57.01
76114;BME280;64845;53.086;5.834;2023-04-03T10:05:38;103523.72;;;7.63;56.80
76114;BME280;64845;53.086;5.834;2023-04-03T10:10:39;103523.91;;;7.74;56.20
76114;BME280;64845;53.086;5.834;2023-04-03T10:13:12;103527.56;;;7.80;56.07
76114;BME280;64845;53.086;5.834;2023-04-03T10:15:46;103516.97;;;7.85;55.83
76114;BME280;64845;53.086;5.834;2023-04-03T10:18:29;103520.66;;;7.93;55.71
76114;BME280;64845;53.086;5.834;2023-04-03T10:21:05;103506.59;;;8.02;55.64
76114;BME280;64845;53.086;5.834;2023-04-03T10:23:49;103505.88;;;8.12;55.78
76114;BME280;64845;53.086;5.834;2023-04-03T10:29:09;103497.13;;;8.23;55.15
76114;BME280;64845;53.086;5.834;2023-04-03T10:34:30;103503.53;;;8.37;54.67
76114;BME280;64845;53.086;5.834;2023-04-03T10:37:02;103493.84;;;8.41;54.46
76114;BME280;64845;53.086;5.834;2023-04-03T10:39:44;103494.78;;;8.46;54.03
76114;BME280;64845;53.086;5.834;2023-04-03T10:50:43;103491.34;;;8.53;53.35
76114;BME280;64845;53.086;5.834;2023-04-03T10:53:23;103479.84;;;8.56;52.84
76114;BME280;64845;53.086;5.834;2023-04-03T10:56:04;103480.75;;;8.58;52.64
76114;BME280;64845;53.086;5.834;2023-04-03T10:58:44;103483.50;;;8.63;52.84
76114;BME280;64845;53.086;5.834;2023-04-03T11:01:18;103486.16;;;8.66;52.27
76114;BME280;64845;53.086;5.834;2023-04-03T11:03:47;103479.16;;;8.74;52.25
76114;BME280;64845;53.086;5.834;2023-04-03T11:06:17;103465.00;;;8.78;52.27
76114;BME280;64845;53.086;5.834;2023-04-03T11:11:15;103475.75;;;8.86;51.84
76114;BME280;64845;53.086;5.834;2023-04-03T11:13:55;103466.94;;;8.91;51.78
76114;BME280;64845;53.086;5.834;2023-04-03T11:16:28;103465.22;;;8.98;51.69
76114;BME280;64845;53.086;5.834;2023-04-03T11:19:11;103465.25;;;9.01;51.55
76114;BME280;64845;53.086;5.834;2023-04-03T11:21:44;103456.38;;;9.01;51.25
76114;BME280;64845;53.086;5.834;2023-04-03T11:24:20;103452.84;;;9.05;50.77
76114;BME280;64845;53.086;5.834;2023-04-03T11:26:48;103452.03;;;9.12;50.84
76114;BME280;64845;53.086;5.834;2023-04-03T11:29:19;103445.88;;;9.19;51.09
76114;BME280;64845;53.086;5.834;2023-04-03T11:34:33;103440.66;;;9.30;50.61
76114;BME280;64845;53.086;5.834;2023-04-03T11:37:06;103437.13;;;9.37;50.50
76114;BME280;64845;53.086;5.834;2023-04-03T11:39:38;103431.84;;;9.45;50.34
76114;BME280;64845;53.086;5.834;2023-04-03T11:44:48;103424.84;;;9.57;49.98
76114;BME280;64845;53.086;5.834;2023-04-03T11:47:46;103424.00;;;9.61;50.07
76114;BME280;64845;53.086;5.834;2023-04-03T11:53:01;103424.06;;;9.76;49.58
76114;BME280;64845;53.086;5.834;2023-04-03T12:08:45;103402.00;;;10.13;48.54
76114;BME280;64845;53.086;5.834;2023-04-03T12:16:25;103404.75;;;10.28;48.22
76114;BME280;64845;53.086;5.834;2023-04-03T12:26:28;103404.84;;;10.53;47.66
76114;BME280;64845;53.086;5.834;2023-04-03T12:28:56;103398.63;;;10.54;47.46
76114;BME280;64845;53.086;5.834;2023-04-03T12:31:24;103404.84;;;10.56;47.22
76114;BME280;64845;53.086;5.834;2023-04-03T12:34:09;103393.28;;;10.62;47.30
76114;BME280;64845;53.086;5.834;2023-04-03T12:36:54;103407.56;;;10.66;47.06
76114;BME280;64845;53.086;5.834;2023-04-03T12:40:06;103401.34;;;10.71;46.75
76114;BME280;64845;53.086;5.834;2023-04-03T12:45:19;103398.66;;;10.84;46.95
76114;BME280;64845;53.086;5.834;2023-04-03T12:47:49;103391.56;;;10.89;46.71
76114;BME280;64845;53.086;5.834;2023-04-03T12:50:30;103383.53;;;10.94;46.65
76114;BME280;64845;53.086;5.834;2023-04-03T12:53:04;103388.91;;;10.95;46.46
76114;BME280;64845;53.086;5.834;2023-04-03T12:55:30;103390.66;;;11.02;46.54
76114;BME280;64845;53.086;5.834;2023-04-03T12:57:56;103385.34;;;11.07;46.59
76114;BME280;64845;53.086;5.834;2023-04-03T13:00:34;103379.97;;;11.10;46.42
76114;BME280;64845;53.086;5.834;2023-04-03T13:03:01;103378.19;;;11.14;45.99
76114;BME280;64845;53.086;5.834;2023-04-03T13:05:28;103371.06;;;11.17;46.03
76114;BME280;64845;53.086;5.834;2023-04-03T13:08:08;103373.72;;;11.21;45.88
76114;BME280;64845;53.086;5.834;2023-04-03T13:10:46;103356.75;;;11.28;45.99
76114;BME280;64845;53.086;5.834;2023-04-03T13:13:15;103365.69;;;11.36;45.79
76114;BME280;64845;53.086;5.834;2023-04-03T13:15:43;103358.53;;;11.40;45.83
76114;BME280;64845;53.086;5.834;2023-04-03T13:18:33;103360.34;;;11.45;45.72
76114;BME280;64845;53.086;5.834;2023-04-03T13:21:26;103344.25;;;11.48;45.52
76114;BME280;64845;53.086;5.834;2023-04-03T13:23:57;103346.94;;;11.53;45.37
76114;BME280;64845;53.086;5.834;2023-04-03T13:26:27;103345.13;;;11.57;45.22
76114;BME280;64845;53.086;5.834;2023-04-03T13:28:57;103329.97;;;11.59;45.44
76114;BME280;64845;53.086;5.834;2023-04-03T13:31:33;103341.56;;;11.64;45.33
76114;BME280;64845;53.086;5.834;2023-04-03T13:34:06;103336.19;;;11.69;45.41
76114;BME280;64845;53.086;5.834;2023-04-03T13:36:44;103336.16;;;11.73;44.94
76114;BME280;64845;53.086;5.834;2023-04-03T13:41:38;103338.81;;;11.79;44.83
76114;BME280;64845;53.086;5.834;2023-04-03T13:46:51;103329.88;;;11.84;44.63
76114;BME280;64845;53.086;5.834;2023-04-03T13:49:41;103326.28;;;11.88;44.64
76114;BME280;64845;53.086;5.834;2023-04-03T13:54:52;103334.28;;;12.05;44.47
76114;BME280;64845;53.086;5.834;2023-04-03T13:57:19;103328.91;;;12.11;44.35
76114;BME280;64845;53.086;5.834;2023-04-03T13:59:45;103328.84;;;12.16;44.21
76114;BME280;64845;53.086;5.834;2023-04-03T14:02:32;103321.69;;;12.21;44.14
76114;BME280;64845;53.086;5.834;2023-04-03T14:04:59;103330.63;;;12.23;44.04
76114;BME280;64845;53.086;5.834;2023-04-03T14:07:27;103326.16;;;12.22;44.01
76114;BME280;64845;53.086;5.834;2023-04-03T14:09:54;103332.41;;;12.24;43.91
76114;BME280;64845;53.086;5.834;2023-04-03T14:12:24;103316.31;;;12.24;43.83
76114;BME280;64845;53.086;5.834;2023-04-03T14:14:50;103318.97;;;12.27;43.58
76114;BME280;64845;53.086;5.834;2023-04-03T14:17:25;103325.19;;;12.32;43.44
76114;BME280;64845;53.086;5.834;2023-04-03T14:19:52;103319.81;;;12.35;43.48
76114;BME280;64845;53.086;5.834;2023-04-03T14:22:26;103312.66;;;12.41;43.30
76114;BME280;64845;53.086;5.834;2023-04-03T14:24:53;103314.34;;;12.48;43.14
76114;BME280;64845;53.086;5.834;2023-04-03T14:27:26;103311.66;;;12.54;43.25